Time;durP1;ratioP1;P1;durP2;ratioP2;P2;SDS_P1;SDS_P2;PMS_P1;PMS_P2;Temp;Humidity;BMP_temperature;BMP_pressure;BME280_temperature;BME280_humidity;BME280_pressure;Samples;Min_cycle;Max_cycle;Signal;HPM_P1;HPM_P2
2022/11/30 00:01:20;;;;;;;18.58;12.30;;;;;;;7.55;100.00;98763.91;10484346;28;20075;-83
2022/11/30 00:06:24;;;;;;;21.42;11.82;;;;;;;7.68;100.00;98757.03;10482265;28;20131;-84
2022/11/30 00:11:27;;;;;;;18.67;11.48;;;;;;;7.66;100.00;98760.00;10461557;28;20492;-83
2022/11/30 00:16:27;;;;;;;17.83;11.82;;;;;;;7.59;100.00;98748.91;10456997;28;20049;-84
2022/11/30 00:21:30;;;;;;;18.17;10.80;;;;;;;7.44;100.00;98754.47;10473563;28;20041;-84
2022/11/30 00:26:31;;;;;;;17.92;11.00;;;;;;;7.55;100.00;98753.22;10443148;28;20048;-82
2022/11/30 00:31:32;;;;;;;17.98;12.02;;;;;;;7.45;100.00;98757.94;10458926;28;20513;-82
2022/11/30 00:36:34;;;;;;;15.60;11.15;;;;;;;7.54;100.00;98754.31;10449334;28;20041;-83
2022/11/30 00:41:35;;;;;;;16.85;10.57;;;;;;;7.40;100.00;98754.25;10483291;28;20033;-83
2022/11/30 00:46:35;;;;;;;16.92;11.00;;;;;;;7.51;100.00;98756.78;10477830;28;20052;-84
2022/11/30 00:51:37;;;;;;;15.88;10.05;;;;;;;7.49;100.00;98765.06;10478753;28;20143;-85
2022/11/30 00:56:41;;;;;;;15.70;9.93;;;;;;;7.20;100.00;98772.44;10456484;28;20050;-83
2022/11/30 01:01:43;;;;;;;16.48;10.65;;;;;;;7.31;100.00;98769.34;10520469;28;20075;-82
2022/11/30 01:06:43;;;;;;;15.93;10.60;;;;;;;7.35;100.00;98772.25;10530360;28;20060;-82
2022/11/30 01:11:44;;;;;;;16.15;10.23;;;;;;;7.36;100.00;98781.84;10493889;28;20883;-82
2022/11/30 01:16:45;;;;;;;14.90;9.80;;;;;;;7.23;100.00;98786.03;10486641;28;20049;-80
2022/11/30 01:21:46;;;;;;;17.58;11.82;;;;;;;7.11;100.00;98791.78;10466382;28;20044;-80
2022/11/30 01:26:48;;;;;;;17.95;11.57;;;;;;;7.13;100.00;98794.97;10511237;28;20155;-82
2022/11/30 01:31:51;;;;;;;19.85;11.20;;;;;;;7.01;100.00;98801.78;10536389;28;20053;-82
2022/11/30 01:36:52;;;;;;;18.35;11.98;;;;;;;7.00;100.00;98794.88;10533851;28;20029;-82
2022/11/30 01:41:53;;;;;;;19.55;11.88;;;;;;;6.97;100.00;98793.56;10510069;28;20040;-84
2022/11/30 01:47:11;;;;;;;22.65;12.10;;;;;;;7.05;100.00;98802.81;10519199;28;20052;-83
2022/11/30 01:52:21;;;;;;;19.40;11.23;;;;;;;6.99;100.00;98794.06;10506758;28;20078;-83
2022/11/30 01:57:39;;;;;;;18.92;11.40;;;;;;;7.04;100.00;98802.03;10514874;28;20044;-86
2022/11/30 02:03:09;;;;;;;21.02;12.32;;;;;;;7.10;100.00;98806.19;10488367;28;20040;-81
2022/11/30 02:08:13;;;;;;;20.45;12.30;;;;;;;6.99;100.00;98798.63;10520784;28;20064;-82
2022/11/30 02:13:27;;;;;;;22.63;12.73;;;;;;;7.00;100.00;98802.88;10524921;28;20472;-80
2022/11/30 02:18:54;;;;;;;20.75;12.50;;;;;;;7.06;100.00;98797.19;10522384;28;20048;-79
2022/11/30 02:24:04;;;;;;;22.48;11.85;;;;;;;6.92;100.00;98800.84;10504971;28;20032;-79
2022/11/30 02:29:13;;;;;;;23.58;13.00;;;;;;;7.05;100.00;98800.94;10534765;28;20029;-80
2022/11/30 02:34:16;;;;;;;21.90;12.27;;;;;;;7.09;100.00;98793.16;10534000;28;20082;-80
2022/11/30 02:39:19;;;;;;;23.02;12.85;;;;;;;7.17;100.00;98800.53;10532198;28;20024;-81
2022/11/30 02:44:22;;;;;;;20.02;12.45;;;;;;;7.17;100.00;98805.06;10529028;28;20033;-82
2022/11/30 02:50:01;;;;;;;20.83;12.07;;;;;;;7.12;100.00;98800.56;10527315;28;20040;-80
2022/11/30 02:55:05;;;;;;;23.17;13.40;;;;;;;7.09;100.00;98809.97;10502005;28;20031;-81
2022/11/30 03:00:09;;;;;;;25.58;12.93;;;;;;;7.21;100.00;98811.41;10520106;28;21242;-79
2022/11/30 03:05:10;;;;;;;18.65;10.93;;;;;;;7.22;100.00;98811.13;10522819;28;20024;-83
2022/11/30 03:10:11;;;;;;;24.70;13.32;;;;;;;7.05;100.00;98816.16;10503138;28;20074;-85
2022/11/30 03:15:13;;;;;;;21.02;11.98;;;;;;;6.99;100.00;98812.75;10484610;28;20040;-84
2022/11/30 03:20:15;;;;;;;22.15;12.35;;;;;;;6.98;100.00;98813.84;10498593;28;20037;-83
2022/11/30 03:25:18;;;;;;;25.13;12.77;;;;;;;6.92;100.00;98820.31;10515905;28;20044;-81
2022/11/30 03:30:19;;;;;;;25.67;13.30;;;;;;;6.87;100.00;98828.38;10497420;28;20489;-78
2022/11/30 03:35:19;;;;;;;21.20;11.60;;;;;;;6.90;100.00;98829.69;10476340;28;20044;-80
2022/11/30 03:40:20;;;;;;;23.40;12.45;;;;;;;6.94;100.00;98828.81;10456913;28;20059;-79
2022/11/30 03:45:22;;;;;;;23.75;11.68;;;;;;;6.98;100.00;98829.06;10474556;28;20040;-81
2022/11/30 03:50:24;;;;;;;25.60;13.00;;;;;;;6.78;100.00;98828.22;10469529;28;20473;-81
2022/11/30 03:55:26;;;;;;;22.08;12.13;;;;;;;6.93;100.00;98827.22;10468037;28;20047;-81
2022/11/30 04:00:26;;;;;;;24.13;12.55;;;;;;;7.01;100.00;98817.81;10475817;28;20124;-82
2022/11/30 04:05:29;;;;;;;24.33;13.18;;;;;;;6.91;100.00;98824.06;10455743;28;20049;-81
2022/11/30 04:10:31;;;;;;;22.27;12.45;;;;;;;6.89;100.00;98820.09;10479955;28;20107;-83
2022/11/30 04:15:32;;;;;;;22.88;12.02;;;;;;;6.89;100.00;98820.88;10476447;28;20041;-82
2022/11/30 04:20:32;;;;;;;21.88;11.32;;;;;;;6.92;100.00;98819.50;10479206;28;20056;-85
2022/11/30 04:25:37;;;;;;;21.35;11.93;;;;;;;6.85;100.00;98820.66;10480986;28;20081;-82
2022/11/30 04:30:38;;;;;;;20.52;12.00;;;;;;;6.49;100.00;98825.59;10469876;28;20758;-81
2022/11/30 04:35:53;;;;;;;22.50;11.45;;;;;;;6.64;100.00;98831.84;10493935;28;20029;-79
2022/11/30 04:40:55;;;;;;;23.73;12.60;;;;;;;6.55;100.00;98832.44;10512601;28;20045;-79
2022/11/30 04:45:56;;;;;;;25.83;12.55;;;;;;;6.69;100.00;98834.47;10536796;28;20025;-82
2022/11/30 04:51:05;;;;;;;23.63;12.20;;;;;;;6.75;100.00;98836.78;10667841;22;20135;-86
2022/11/30 04:56:10;;;;;;;23.30;13.43;;;;;;;6.72;100.00;98836.56;10433166;28;21134;-87
2022/11/30 05:01:12;;;;;;;27.23;12.43;;;;;;;6.74;100.00;98835.19;10438335;28;20059;-85
2022/11/30 05:06:14;;;;;;;23.45;13.07;;;;;;;6.59;100.00;98834.56;10458782;28;20032;-80
2022/11/30 05:11:15;;;;;;;25.42;12.80;;;;;;;6.43;100.00;98828.59;10479848;28;20049;-82
2022/11/30 05:16:17;;;;;;;24.27;12.80;;;;;;;6.39;100.00;98839.00;10476497;28;20041;-83
2022/11/30 05:21:18;;;;;;;25.27;13.35;;;;;;;6.45;100.00;98851.22;10444267;28;20461;-83
2022/11/30 05:26:18;;;;;;;25.73;13.80;;;;;;;6.51;100.00;98858.09;10435620;28;20129;-83
2022/11/30 05:31:19;;;;;;;22.42;12.75;;;;;;;6.60;100.00;98852.16;10445301;28;20110;-84
2022/11/30 05:36:20;;;;;;;28.40;14.43;;;;;;;6.57;100.00;98854.28;10437010;28;20108;-82
2022/11/30 05:41:22;;;;;;;27.92;14.52;;;;;;;6.43;100.00;98841.94;10430849;28;20128;-82
2022/11/30 05:46:23;;;;;;;33.22;15.55;;;;;;;6.04;100.00;98850.00;10439904;28;20077;-82
2022/11/30 05:51:24;;;;;;;29.00;15.63;;;;;;;6.02;100.00;98854.78;10441474;28;20224;-80
2022/11/30 05:56:24;;;;;;;30.42;14.90;;;;;;;5.99;100.00;98856.94;10438708;28;20045;-82
2022/11/30 06:01:27;;;;;;;30.33;14.63;;;;;;;6.13;100.00;98859.78;10437412;28;20052;-81
2022/11/30 06:06:29;;;;;;;31.95;14.65;;;;;;;5.93;100.00;98852.72;10439631;28;20072;-82
2022/11/30 06:11:31;;;;;;;31.90;15.43;;;;;;;5.83;100.00;98859.97;10442896;28;20095;-82
2022/11/30 06:16:32;;;;;;;33.08;15.63;;;;;;;5.79;100.00;98867.72;10441470;28;20397;-84
2022/11/30 06:21:33;;;;;;;28.55;15.00;;;;;;;5.64;100.00;98865.94;10458511;28;20034;-82
2022/11/30 06:26:34;;;;;;;31.85;16.85;;;;;;;5.56;100.00;98871.06;10470101;28;20085;-81
2022/11/30 06:31:35;;;;;;;29.17;14.45;;;;;;;5.48;100.00;98874.28;10480951;28;20048;-80
2022/11/30 06:36:35;;;;;;;34.80;17.33;;;;;;;5.67;100.00;98870.75;10480176;28;20032;-80
2022/11/30 06:41:36;;;;;;;36.75;16.42;;;;;;;5.86;100.00;98867.44;10434340;28;20102;-80
2022/11/30 06:46:36;;;;;;;34.65;15.65;;;;;;;5.81;100.00;98878.91;10429321;28;20570;-78
2022/11/30 06:51:38;;;;;;;35.42;18.15;;;;;;;5.59;100.00;98875.84;10442079;28;20161;-79
2022/11/30 06:56:40;;;;;;;30.30;15.80;;;;;;;5.58;100.00;98874.25;10435151;28;20413;-79
2022/11/30 07:01:41;;;;;;;37.38;17.45;;;;;;;5.55;100.00;98883.56;10447181;28;20034;-80
2022/11/30 07:06:42;;;;;;;34.83;15.80;;;;;;;5.63;100.00;98885.66;10458074;28;20052;-79
2022/11/30 07:11:42;;;;;;;33.58;16.92;;;;;;;5.55;100.00;98891.56;10459791;28;20052;-80
2022/11/30 07:16:43;;;;;;;38.38;16.77;;;;;;;5.68;100.00;98898.97;10442478;28;20049;-79
2022/11/30 07:21:44;;;;;;;37.60;17.10;;;;;;;5.84;100.00;98899.66;10449677;28;20041;-80
2022/11/30 07:26:47;;;;;;;36.78;17.52;;;;;;;5.87;100.00;98896.44;10444715;28;20166;-79
2022/11/30 07:31:56;;;;;;;40.50;18.60;;;;;;;5.87;100.00;98899.09;10435629;28;20060;-81
2022/11/30 07:36:59;;;;;;;40.58;19.67;;;;;;;5.97;100.00;98895.59;10442017;28;20033;-79
2022/11/30 07:42:00;;;;;;;39.55;17.45;;;;;;;5.97;100.00;98904.41;10437139;28;20151;-80
2022/11/30 07:47:01;;;;;;;38.22;17.80;;;;;;;6.00;100.00;98900.38;10455781;28;20035;-80
2022/11/30 07:52:03;;;;;;;38.20;18.75;;;;;;;6.08;100.00;98899.78;10482050;28;20041;-77
2022/11/30 07:57:03;;;;;;;38.42;17.77;;;;;;;6.07;100.00;98900.88;10472004;28;20072;-79
2022/11/30 08:02:04;;;;;;;40.03;17.02;;;;;;;6.34;100.00;98895.06;10473461;28;20040;-80
2022/11/30 08:07:10;;;;;;;38.53;18.95;;;;;;;6.31;100.00;98906.28;10439708;28;20473;-80
2022/11/30 08:12:11;;;;;;;39.03;17.10;;;;;;;6.57;100.00;98902.31;10422614;28;20079;-78
2022/11/30 08:17:11;;;;;;;36.85;16.50;;;;;;;6.51;100.00;98908.78;10421485;28;20065;-81
2022/11/30 08:22:14;;;;;;;37.05;17.60;;;;;;;6.77;100.00;98911.22;10439047;28;20127;-80
2022/11/30 08:27:14;;;;;;;39.63;17.83;;;;;;;6.91;100.00;98904.09;10434778;28;20045;-80
2022/11/30 08:32:18;;;;;;;33.97;17.52;;;;;;;6.89;100.00;98916.16;10431584;28;20048;-79
2022/11/30 08:37:20;;;;;;;36.78;17.10;;;;;;;6.92;100.00;98926.25;10439804;28;20041;-80
2022/11/30 08:42:20;;;;;;;34.00;17.25;;;;;;;6.83;100.00;98923.41;10442472;28;20044;-78
2022/11/30 08:47:23;;;;;;;30.38;15.23;;;;;;;6.79;100.00;98925.06;10443095;28;20051;-82
2022/11/30 08:52:26;;;;;;;39.85;17.50;;;;;;;6.78;100.00;98934.13;10406224;28;20126;-80
2022/11/30 08:57:27;;;;;;;28.10;14.95;;;;;;;6.53;100.00;98941.28;10443122;28;20033;-79
2022/11/30 09:02:28;;;;;;;39.55;17.02;;;;;;;6.66;100.00;98945.16;10439171;28;20059;-79
2022/11/30 09:07:30;;;;;;;34.53;16.43;;;;;;;6.69;100.00;98955.28;10452123;28;20040;-79
2022/11/30 09:12:35;;;;;;;38.35;17.63;;;;;;;6.71;100.00;98960.34;10442554;28;20029;-80
2022/11/30 09:17:35;;;;;;;41.40;17.73;;;;;;;6.31;100.00;98964.94;10452608;28;20136;-81
2022/11/30 09:22:38;;;;;;;38.03;17.05;;;;;;;6.29;100.00;98969.72;10430607;28;20528;-79
2022/11/30 09:27:39;;;;;;;35.30;15.85;;;;;;;6.43;100.00;98961.91;10441842;28;20653;-79
2022/11/30 09:32:41;;;;;;;35.33;18.15;;;;;;;6.61;100.00;98971.91;10442911;28;20136;-79
2022/11/30 09:37:41;;;;;;;31.58;16.13;;;;;;;6.68;100.00;98969.72;10432858;28;20042;-79
2022/11/30 09:42:58;;;;;;;40.08;17.48;;;;;;;6.83;100.00;98956.22;10432085;28;20033;-80
2022/11/30 09:48:22;;;;;;;34.25;14.77;;;;;;;6.84;100.00;98957.78;10444302;28;20139;-79
2022/11/30 09:53:29;;;;;;;36.53;16.05;;;;;;;7.02;100.00;98952.84;10485124;28;20051;-80
2022/11/30 09:58:56;;;;;;;30.90;14.88;;;;;;;6.81;100.00;98954.91;10479153;28;20040;-79
2022/11/30 10:03:57;;;;;;;35.85;17.50;;;;;;;6.97;100.00;98959.03;10479942;28;20044;-79
2022/11/30 10:09:37;;;;;;;32.80;14.45;;;;;;;6.81;100.00;98966.38;10477167;28;20497;-78
2022/11/30 10:15:06;;;;;;;27.40;14.80;;;;;;;7.00;100.00;98955.78;10479346;28;20052;-80
2022/11/30 10:20:24;;;;;;;27.60;13.82;;;;;;;6.91;100.00;98949.47;10470562;28;20147;-78
2022/11/30 10:25:44;;;;;;;31.73;14.32;;;;;;;6.86;100.00;98954.88;10471143;28;20044;-79
2022/11/30 10:30:49;;;;;;;30.02;13.50;;;;;;;6.92;100.00;98952.94;10475493;28;20063;-79
2022/11/30 10:35:57;;;;;;;30.85;14.07;;;;;;;6.98;100.00;98944.59;10480996;28;20033;-80
2022/11/30 10:41:17;;;;;;;29.20;14.10;;;;;;;6.85;100.00;98951.38;10444997;28;20049;-81
2022/11/30 10:46:23;;;;;;;30.77;14.05;;;;;;;6.62;100.00;98948.69;10467075;28;20048;-80
2022/11/30 10:51:25;;;;;;;27.88;13.48;;;;;;;6.53;100.00;98953.81;10501747;28;20048;-81
2022/11/30 10:56:26;;;;;;;28.70;14.70;;;;;;;6.90;100.00;98941.75;10518674;28;20075;-78
2022/11/30 11:01:38;;;;;;;29.27;15.35;;;;;;;6.74;100.00;98943.75;10496537;28;20036;-78
2022/11/30 11:06:44;;;;;;;32.92;15.55;;;;;;;6.74;100.00;98938.44;10521167;28;20029;-79
2022/11/30 11:11:57;;;;;;;29.10;14.55;;;;;;;6.83;100.00;98936.75;10487516;28;20048;-80
2022/11/30 11:17:04;;;;;;;29.10;14.85;;;;;;;6.94;100.00;98940.91;10440023;28;20091;-78
2022/11/30 11:22:13;;;;;;;29.55;14.70;;;;;;;7.03;100.00;98941.06;10479998;28;20045;-78
2022/11/30 11:27:26;;;;;;;30.90;15.13;;;;;;;7.32;100.00;98941.84;10470170;28;20040;-80
2022/11/30 11:32:29;;;;;;;28.02;14.55;;;;;;;7.33;100.00;98937.28;10504709;28;20055;-80
2022/11/30 11:37:36;;;;;;;33.08;17.02;;;;;;;7.09;100.00;98935.41;10486157;28;20799;-80
2022/11/30 11:42:52;;;;;;;33.20;15.70;;;;;;;7.03;100.00;98944.53;10485471;28;20045;-80
2022/11/30 11:47:59;;;;;;;31.40;15.48;;;;;;;6.65;100.00;98940.13;10468619;28;20583;-81
2022/11/30 11:53:06;;;;;;;32.67;16.00;;;;;;;7.15;100.00;98943.38;10475408;28;20040;-79
2022/11/30 11:58:14;;;;;;;31.27;14.57;;;;;;;7.33;100.00;98946.09;10460688;28;20041;-79
2022/11/30 12:03:26;;;;;;;29.80;15.10;;;;;;;7.25;100.00;98943.25;10475417;28;20040;-78
2022/11/30 12:08:51;;;;;;;31.05;15.38;;;;;;;7.48;100.00;98947.78;10456439;28;20124;-78
2022/11/30 12:13:53;;;;;;;32.90;15.27;;;;;;;7.37;100.00;98951.66;10457681;28;20048;-79
2022/11/30 12:19:14;;;;;;;34.22;16.25;;;;;;;7.26;100.00;98945.63;10477477;28;20535;-79
2022/11/30 12:24:33;;;;;;;30.58;15.60;;;;;;;7.25;100.00;98938.72;10475234;28;20106;-79
2022/11/30 12:30:09;;;;;;;28.60;14.65;;;;;;;7.33;100.00;98945.31;10474360;28;20056;-81
2022/11/30 12:35:15;;;;;;;28.95;14.68;;;;;;;7.32;100.00;98936.50;10412824;28;20155;-79
2022/11/30 12:40:53;;;;;;;32.15;16.50;;;;;;;7.18;100.00;98935.59;10453270;28;20037;-80
2022/11/30 12:46:02;;;;;;;30.40;14.55;;;;;;;7.46;100.00;98938.47;10457941;28;20049;-79
2022/11/30 12:51:19;;;;;;;28.48;14.65;;;;;;;7.12;100.00;98944.72;10470547;28;20040;-79
2022/11/30 12:56:41;;;;;;;29.63;15.15;;;;;;;7.01;100.00;98941.38;10452214;28;20105;-78
2022/11/30 13:02:06;;;;;;;28.58;14.98;;;;;;;7.29;100.00;98942.38;10462383;28;20067;-79
2022/11/30 13:07:24;;;;;;;29.15;14.70;;;;;;;6.93;100.00;98938.50;10467484;28;20171;-78
2022/11/30 13:12:34;;;;;;;29.60;14.18;;;;;;;6.82;100.00;98932.50;10459333;28;20128;-79
2022/11/30 13:17:37;;;;;;;30.05;14.93;;;;;;;7.11;100.00;98935.91;10488737;28;20130;-78
2022/11/30 13:23:01;;;;;;;31.63;15.82;;;;;;;7.10;100.00;98928.97;10496384;28;20053;-79
2022/11/30 13:28:19;;;;;;;34.58;16.27;;;;;;;6.96;100.00;98933.41;10499110;28;20062;-79
2022/11/30 13:33:34;;;;;;;30.13;15.48;;;;;;;6.98;100.00;98933.13;10497288;28;20025;-79
2022/11/30 13:38:34;;;;;;;30.10;14.73;;;;;;;6.81;100.00;98930.91;10481755;28;20049;-79
2022/11/30 13:43:47;;;;;;;31.98;15.15;;;;;;;6.62;100.00;98930.81;10456405;28;20048;-78
2022/11/30 13:48:48;;;;;;;30.60;14.77;;;;;;;6.91;100.00;98930.00;10476930;28;20068;-79
2022/11/30 13:54:29;;;;;;;29.63;15.07;;;;;;;6.69;100.00;98949.16;10486823;28;20059;-79
2022/11/30 13:59:34;;;;;;;29.50;15.10;;;;;;;6.52;100.00;98941.56;10456581;28;20432;-79
2022/11/30 14:04:44;;;;;;;26.92;15.10;;;;;;;6.54;100.00;98934.88;10497980;28;20060;-78
2022/11/30 14:09:56;;;;;;;26.92;13.90;;;;;;;6.86;100.00;98936.19;10532062;28;20051;-79
2022/11/30 14:14:58;;;;;;;24.23;14.20;;;;;;;6.29;100.00;98940.41;10510387;28;20021;-80
2022/11/30 14:20:32;;;;;;;28.13;14.88;;;;;;;6.87;100.00;98939.66;10470775;28;20055;-79
2022/11/30 14:25:35;;;;;;;26.35;14.07;;;;;;;6.82;100.00;98941.28;10445992;28;20255;-78
2022/11/30 14:30:38;;;;;;;24.98;13.38;;;;;;;6.62;100.00;98954.03;10470062;28;20048;-79
2022/11/30 14:35:39;;;;;;;;;;;;;;;6.34;100.00;98950.25;10459042;28;20083;-78
2022/11/30 14:40:50;;;;;;;26.63;14.10;;;;;;;6.53;100.00;98948.50;10478185;28;20188;-78
2022/11/30 14:46:04;;;;;;;25.02;13.90;;;;;;;6.51;100.00;98950.66;10472582;28;20517;-79
2022/11/30 14:51:04;;;;;;;26.23;14.27;;;;;;;6.72;100.00;98953.94;10455017;28;20048;-79
2022/11/30 14:56:06;;;;;;;25.67;13.73;;;;;;;6.64;100.00;98957.19;10464517;28;20968;-79
2022/11/30 15:01:18;;;;;;;26.13;13.60;;;;;;;6.63;100.00;98956.41;10476662;28;20122;-80
2022/11/30 15:06:25;;;;;;;28.80;14.73;;;;;;;6.66;100.00;98955.84;10440202;28;20374;-80
2022/11/30 15:11:26;;;;;;;28.15;14.88;;;;;;;6.52;100.00;98968.22;10468162;28;20060;-80
2022/11/30 15:16:29;;;;;;;27.10;13.85;;;;;;;6.59;100.00;98963.38;10474035;28;20036;-79
2022/11/30 15:21:32;;;;;;;29.13;15.23;;;;;;;6.38;100.00;98961.94;10445764;28;20047;-80
2022/11/30 15:26:42;;;;;;;28.50;14.38;;;;;;;6.66;100.00;98957.72;10467488;28;20072;-78
2022/11/30 15:31:50;;;;;;;24.50;13.35;;;;;;;6.66;100.00;98952.38;10469482;28;20116;-80
2022/11/30 15:36:55;;;;;;;23.23;13.73;;;;;;;6.54;100.00;98961.53;10476554;28;20044;-80
2022/11/30 15:41:58;;;;;;;29.85;15.38;;;;;;;6.40;100.00;98971.28;10481929;28;20612;-78
2022/11/30 15:47:01;;;;;;;31.53;16.40;;;;;;;6.57;100.00;98974.31;10466379;28;20037;-78
2022/11/30 15:52:16;;;;;;;25.90;14.23;;;;;;;6.75;100.00;98982.69;10453538;28;20127;-79
2022/11/30 15:57:17;;;;;;;27.00;14.35;;;;;;;6.27;100.00;98986.00;10523264;28;20075;-78
2022/11/30 16:02:37;;;;;;;25.17;14.10;;;;;;;5.60;100.00;98998.06;10486953;28;20029;-80
2022/11/30 16:07:48;;;;;;;27.02;14.30;;;;;;;6.29;100.00;98996.38;10494093;28;20098;-79
2022/11/30 16:12:50;;;;;;;26.58;14.65;;;;;;;6.35;100.00;99000.63;10485798;28;20040;-81
2022/11/30 16:17:54;;;;;;;29.08;14.68;;;;;;;6.53;100.00;99001.81;10479877;28;20064;-81
2022/11/30 16:22:55;;;;;;;31.27;15.55;;;;;;;6.41;100.00;98998.72;10463322;28;20044;-81
2022/11/30 16:27:56;;;;;;;29.50;15.82;;;;;;;6.26;100.00;99004.94;10487463;28;20564;-80
2022/11/30 16:32:57;;;;;;;30.08;15.93;;;;;;;6.25;100.00;99001.47;10470356;28;20157;-81
2022/11/30 16:37:57;;;;;;;34.30;16.67;;;;;;;6.34;100.00;99000.91;10496465;28;20416;-79
2022/11/30 16:42:59;;;;;;;32.35;16.85;;;;;;;5.58;100.00;99010.84;10478691;28;20045;-82
2022/11/30 16:48:00;;;;;;;31.95;16.60;;;;;;;5.84;100.00;99016.06;10489252;28;20039;-82
2022/11/30 16:53:05;;;;;;;31.33;16.10;;;;;;;5.87;100.00;99013.66;10490569;28;20071;-82
2022/11/30 16:58:05;;;;;;;25.53;14.63;;;;;;;5.57;100.00;99009.22;10482418;28;20040;-82
2022/11/30 17:03:16;;;;;;;31.83;16.67;;;;;;;5.67;100.00;99019.88;10464837;28;20311;-80
2022/11/30 17:08:17;;;;;;;31.65;16.20;;;;;;;5.80;100.00;99015.03;10461628;28;20045;-80
2022/11/30 17:13:18;;;;;;;28.60;16.23;;;;;;;5.71;100.00;99012.13;10496140;28;20029;-78
2022/11/30 17:18:20;;;;;;;27.63;14.68;;;;;;;5.99;100.00;99021.34;10514456;28;20033;-78
2022/11/30 17:23:21;;;;;;;27.63;14.85;;;;;;;5.95;100.00;99021.13;10512131;28;20048;-79
2022/11/30 17:28:22;;;;;;;30.85;15.43;;;;;;;5.83;100.00;99025.13;10464111;28;20072;-80
2022/11/30 17:33:23;;;;;;;26.98;14.98;;;;;;;5.85;100.00;99037.13;10479068;28;20067;-80
2022/11/30 17:38:26;;;;;;;28.45;15.07;;;;;;;5.81;100.00;99036.06;10472706;28;20049;-79
2022/11/30 17:43:28;;;;;;;32.22;16.40;;;;;;;5.61;100.00;99041.47;10478785;28;20484;-81
2022/11/30 17:48:30;;;;;;;28.50;15.25;;;;;;;5.97;100.00;99045.59;10467458;28;20389;-82
2022/11/30 17:53:31;;;;;;;29.52;15.18;;;;;;;6.03;100.00;99046.38;10482988;28;20049;-82
2022/11/30 17:58:32;;;;;;;26.23;14.63;;;;;;;5.83;100.00;99055.22;10484473;28;20041;-87
2022/11/30 18:03:33;;;;;;;27.67;14.85;;;;;;;5.70;100.00;99051.28;10491767;28;20049;-79
2022/11/30 18:08:34;;;;;;;28.35;15.05;;;;;;;5.76;100.00;99054.72;10462056;28;20053;-85
2022/11/30 18:13:35;;;;;;;26.88;14.95;;;;;;;5.55;100.00;99056.63;10476432;28;20052;-81
2022/11/30 18:18:35;;;;;;;26.35;14.18;;;;;;;5.76;100.00;99072.56;10454155;28;20381;-78
2022/11/30 18:23:36;;;;;;;27.42;14.43;;;;;;;5.87;100.00;99074.13;10469578;28;20041;-80
2022/11/30 18:28:37;;;;;;;27.35;14.90;;;;;;;5.87;100.00;99074.13;10486513;28;20120;-83
2022/11/30 18:33:39;;;;;;;29.88;14.27;;;;;;;5.52;100.00;99073.16;10483413;28;20064;-82
2022/11/30 18:38:40;;;;;;;25.70;15.55;;;;;;;5.55;100.00;99069.16;10512230;28;20040;-81
2022/11/30 18:43:41;;;;;;;26.42;13.35;;;;;;;5.67;100.00;99070.47;10491520;28;20052;-81
2022/11/30 18:48:42;;;;;;;28.17;14.18;;;;;;;5.67;100.00;99073.13;10480367;28;20040;-80
2022/11/30 18:59:18;;;;;;;26.92;14.07;;;;;;;5.68;100.00;99081.91;10455593;28;20057;-81
2022/11/30 19:04:18;;;;;;;26.65;13.95;;;;;;;5.63;100.00;99077.38;10457711;28;20052;-89
2022/11/30 19:09:21;;;;;;;24.55;14.25;;;;;;;5.82;100.00;99071.47;11099724;22;20044;-83
2022/11/30 19:14:21;;;;;;;26.35;13.80;;;;;;;5.82;100.00;99076.81;10446424;28;20053;-84
2022/11/30 19:19:24;;;;;;;26.05;13.18;;;;;;;6.05;100.00;99078.09;10456763;28;20413;-84
2022/11/30 19:24:25;;;;;;;28.80;13.95;;;;;;;6.00;100.00;99070.91;10468399;28;20041;-84
2022/11/30 19:29:27;;;;;;;25.77;14.82;;;;;;;6.09;100.00;99079.91;10559839;22;20040;-82
2022/11/30 19:34:28;;;;;;;30.55;15.18;;;;;;;6.18;100.00;99083.63;10468180;28;20037;-86
2022/11/30 19:39:28;;;;;;;28.65;15.15;;;;;;;6.19;100.00;99085.19;10472497;28;20025;-82
2022/11/30 19:44:30;;;;;;;28.00;15.10;;;;;;;5.98;100.00;99086.38;10464654;28;20126;-82
2022/11/30 19:49:30;;;;;;;27.75;13.57;;;;;;;5.88;100.00;99089.84;10462206;28;20017;-83
2022/11/30 19:54:31;;;;;;;27.42;13.68;;;;;;;5.93;100.00;99095.16;10459946;28;20044;-80
2022/11/30 19:59:32;;;;;;;25.45;13.65;;;;;;;5.89;100.00;99088.78;10444444;28;20504;-80
2022/11/30 20:04:32;;;;;;;26.55;13.98;;;;;;;5.94;100.00;99094.13;10446695;28;20045;-81
2022/11/30 20:09:35;;;;;;;27.42;14.55;;;;;;;5.95;100.00;99100.25;10448203;28;20528;-82
2022/11/30 20:14:35;;;;;;;28.23;14.80;;;;;;;5.97;100.00;99101.56;10450443;28;20091;-82
2022/11/30 20:19:36;;;;;;;31.05;14.52;;;;;;;5.80;100.00;99093.06;10469721;28;20041;-78
2022/11/30 20:24:36;;;;;;;29.08;15.13;;;;;;;5.89;100.00;99101.28;10492379;28;20045;-82
2022/11/30 20:29:38;;;;;;;28.48;14.73;;;;;;;5.93;100.00;99102.38;10482604;22;20060;-78
2022/11/30 20:34:39;;;;;;;24.35;14.35;;;;;;;5.95;100.00;99100.25;10412345;28;20029;-81
2022/11/30 20:39:41;;;;;;;28.80;14.93;;;;;;;5.97;100.00;99095.44;10405049;28;20050;-81
2022/11/30 20:44:41;;;;;;;28.35;15.32;;;;;;;5.90;100.00;99095.72;10394452;28;20529;-82
2022/11/30 20:49:42;;;;;;;28.85;14.68;;;;;;;6.07;100.00;99091.94;10421654;28;20084;-83
2022/11/30 20:54:42;;;;;;;25.83;13.13;;;;;;;5.86;100.00;99091.19;10383102;28;20045;-84
2022/11/30 20:59:44;;;;;;;24.65;12.95;;;;;;;5.99;100.00;99083.44;10422979;28;20087;-83
2022/11/30 21:04:45;;;;;;;30.23;15.13;;;;;;;5.93;100.00;99086.38;10436180;28;20049;-79
2022/11/30 21:09:46;;;;;;;28.42;14.20;;;;;;;5.79;100.00;99093.34;10457855;28;20026;-82
2022/11/30 21:14:48;;;;;;;27.48;14.75;;;;;;;5.80;100.00;99089.59;10413227;28;20045;-83
2022/11/30 21:19:48;;;;;;;27.02;14.18;;;;;;;5.91;100.00;99088.53;10398255;28;20076;-81
2022/11/30 21:24:49;;;;;;;25.70;13.98;;;;;;;6.02;100.00;99086.63;10436808;28;20049;-82
2022/11/30 21:29:50;;;;;;;28.73;15.18;;;;;;;6.07;100.00;99084.75;10427363;28;20045;-81
2022/11/30 21:34:50;;;;;;;30.13;14.68;;;;;;;6.25;100.00;99086.00;10422980;28;20045;-80
2022/11/30 21:39:52;;;;;;;29.65;13.98;;;;;;;6.47;100.00;99091.72;10427331;28;20056;-81
2022/11/30 21:44:52;;;;;;;27.02;14.15;;;;;;;6.04;100.00;99093.28;10450427;28;20041;-80
2022/11/30 21:49:53;;;;;;;27.10;14.40;;;;;;;6.01;100.00;99090.34;10457612;28;20056;-84
2022/11/30 21:54:54;;;;;;;25.27;13.65;;;;;;;6.32;100.00;99089.16;10447572;28;20088;-85
2022/11/30 21:59:54;;;;;;;25.58;13.30;;;;;;;6.48;100.00;99085.31;10431155;28;20073;-84
2022/11/30 22:04:55;;;;;;;27.20;13.65;;;;;;;6.32;100.00;99075.81;10416677;28;20057;-83
2022/11/30 22:09:56;;;;;;;24.67;13.02;;;;;;;6.27;100.00;99089.16;10437927;28;20239;-82
2022/11/30 22:14:57;;;;;;;23.63;11.88;;;;;;;6.14;100.00;99081.78;10444837;28;20079;-85
2022/11/30 22:19:57;;;;;;;21.92;11.70;;;;;;;6.04;100.00;99074.63;10448399;28;20266;-82
2022/11/30 22:24:58;;;;;;;24.58;12.60;;;;;;;6.00;100.00;99078.91;10424947;28;20053;-82
2022/11/30 22:30:00;;;;;;;22.48;11.73;;;;;;;6.20;100.00;99078.00;10439367;28;20072;-83
2022/11/30 22:35:00;;;;;;;24.15;11.93;;;;;;;6.24;100.00;99076.41;10433397;28;20048;-82
2022/11/30 22:40:01;;;;;;;21.92;11.00;;;;;;;5.87;100.00;99072.25;10442985;28;20017;-80
2022/11/30 22:45:02;;;;;;;20.20;10.80;;;;;;;6.14;100.00;99068.47;10474743;28;20479;-82
2022/11/30 22:50:04;;;;;;;22.65;11.68;;;;;;;6.12;100.00;99075.91;10441390;28;20060;-83
2022/11/30 22:55:05;;;;;;;18.48;10.00;;;;;;;5.82;100.00;99082.13;10435201;28;20053;-82
2022/11/30 23:00:06;;;;;;;20.73;10.52;;;;;;;6.23;100.00;99072.16;10445673;28;20042;-82
2022/11/30 23:05:07;;;;;;;19.60;10.45;;;;;;;5.71;100.00;99073.38;10445955;28;20136;-83
2022/11/30 23:10:08;;;;;;;17.52;9.57;;;;;;;5.64;100.00;99067.53;10415310;28;20118;-85